Time;durP1;ratioP1;P1;durP2;ratioP2;P2;SDS_P1;SDS_P2;PMS_P1;PMS_P2;Temp;Humidity;BMP_temperature;BMP_pressure;BME280_temperature;BME280_humidity;BME280_pressure;Samples;Min_cycle;Max_cycle;Signal;HPM_P1;HPM_P2
2023/09/10 00:00:19;;;;;;;19.10;15.45;;;;;;;;;;5094730;28;20042;-45
2023/09/10 00:02:45;;;;;;;19.42;15.40;;;;;;;;;;5094748;28;20082;-48
2023/09/10 00:05:11;;;;;;;20.85;14.65;;;;;;;;;;5094810;28;20016;-50
2023/09/10 00:07:37;;;;;;;19.50;15.40;;;;;;;;;;5094693;28;20028;-50
2023/09/10 00:10:03;;;;;;;19.88;15.25;;;;;;;;;;5094473;28;20435;-51
2023/09/10 00:12:29;;;;;;;15.90;14.15;;;;;;;;;;5094473;28;20035;-52
2023/09/10 00:14:55;;;;;;;16.10;14.60;;;;;;;;;;5094152;28;20028;-50
2023/09/10 00:17:21;;;;;;;16.13;14.57;;;;;;;;;;5094797;28;20023;-49
2023/09/10 00:19:47;;;;;;;17.80;15.10;;;;;;;;;;5094675;28;20024;-49
2023/09/10 00:22:13;;;;;;;18.08;16.05;;;;;;;;;;5123205;27;20026;-52
2023/09/10 00:24:39;;;;;;;21.00;15.63;;;;;;;;;;5094292;28;20111;-47
2023/09/10 00:27:05;;;;;;;18.13;15.88;;;;;;;;;;5079144;28;20024;-47
2023/09/10 00:29:31;;;;;;;21.55;16.48;;;;;;;;;;5094367;28;20111;-51
2023/09/10 00:35:10;;;;;;;19.20;16.17;;;;;;;;;;5100471;28;20546;-45
2023/09/10 00:37:36;;;;;;;18.90;16.88;;;;;;;;;;5096687;28;20048;-45
2023/09/10 00:40:04;;;;;;;18.25;16.35;;;;;;;;;;5084582;28;20063;-45
2023/09/10 00:42:30;;;;;;;19.33;16.98;;;;;;;;;;5093854;28;20469;-48
2023/09/10 00:44:56;;;;;;;18.00;16.02;;;;;;;;;;5099814;28;20020;-50
2023/09/10 00:47:22;;;;;;;17.92;15.68;;;;;;;;;;5102567;28;20085;-47
2023/09/10 00:49:49;;;;;;;17.90;16.15;;;;;;;;;;5097557;28;20032;-46
2023/09/10 00:52:16;;;;;;;17.25;15.52;;;;;;;;;;5103023;28;20446;-47
2023/09/10 00:54:42;;;;;;;19.67;16.25;;;;;;;;;;5079238;28;20381;-46
2023/09/10 00:57:08;;;;;;;17.52;15.77;;;;;;;;;;5093733;28;20470;-46
2023/09/10 00:59:34;;;;;;;16.98;15.25;;;;;;;;;;5107869;28;20027;-46
2023/09/10 01:02:01;;;;;;;22.65;16.75;;;;;;;;;;5093868;28;20119;-46
2023/09/10 01:04:27;;;;;;;20.70;17.10;;;;;;;;;;5093912;28;20474;-49
2023/09/10 01:06:54;;;;;;;21.33;16.88;;;;;;;;;;5098037;28;20096;-49
2023/09/10 01:09:20;;;;;;;19.17;15.73;;;;;;;;;;5084566;28;20023;-46
2023/09/10 01:12:04;;;;;;;18.85;16.25;;;;;;;;;;5088335;28;20024;-50
2023/09/10 01:14:41;;;;;;;20.52;16.67;;;;;;;;;;5093548;28;20051;-46
2023/09/10 01:17:13;;;;;;;20.48;16.52;;;;;;;;;;5095445;28;20024;-50
2023/09/10 01:19:46;;;;;;;18.42;16.63;;;;;;;;;;5104582;28;20020;-46
2023/09/10 01:22:31;;;;;;;19.85;16.08;;;;;;;;;;5108059;28;20412;-53
2023/09/10 01:24:57;;;;;;;;;;;;;;;;;;5081620;28;20085;-52
2023/09/10 01:27:28;;;;;;;17.35;15.52;;;;;;;;;;5107398;28;19908;-47
2023/09/10 01:29:54;;;;;;;17.48;15.68;;;;;;;;;;5081673;28;20028;-45
2023/09/10 01:32:23;;;;;;;20.92;16.52;;;;;;;;;;5093163;28;20027;-49
2023/09/10 01:34:54;;;;;;;17.88;16.05;;;;;;;;;;5094500;28;20422;-51
2023/09/10 01:37:43;;;;;;;19.08;17.17;;;;;;;;;;5093213;28;20023;-51
2023/09/10 01:40:10;;;;;;;19.20;17.20;;;;;;;;;;5087402;28;20482;-47
2023/09/10 01:42:36;;;;;;;19.85;17.88;;;;;;;;;;5104732;28;20024;-47
2023/09/10 01:45:03;;;;;;;19.55;17.10;;;;;;;;;;5099602;28;20897;-47
2023/09/10 01:47:30;;;;;;;19.33;16.80;;;;;;;;;;5100304;28;20123;-48
2023/09/10 01:49:56;;;;;;;18.65;16.60;;;;;;;;;;5093160;28;20103;-45
2023/09/10 01:52:22;;;;;;;19.05;16.00;;;;;;;;;;5092847;28;20498;-45
2023/09/10 01:54:48;;;;;;;18.73;16.42;;;;;;;;;;5116785;28;20022;-48
2023/09/10 01:57:14;;;;;;;18.08;16.15;;;;;;;;;;5116600;28;20016;-46
2023/09/10 02:08:51;;;;;;;19.48;17.20;;;;;;;;;;5099762;28;20035;-49
2023/09/10 02:11:19;;;;;;;18.60;16.75;;;;;;;;;;5100244;27;20047;-52
2023/09/10 02:13:45;;;;;;;18.20;16.17;;;;;;;;;;5121858;27;20036;-53
2023/09/10 02:16:12;;;;;;;19.75;17.45;;;;;;;;;;5130777;27;20015;-53
2023/09/10 02:18:38;;;;;;;19.50;17.45;;;;;;;;;;5108814;27;20027;-48
2023/09/10 02:21:11;;;;;;;18.70;16.90;;;;;;;;;;5113412;27;20024;-52
2023/09/10 02:23:37;;;;;;;20.67;17.05;;;;;;;;;;5110990;28;20074;-46
2023/09/10 02:26:03;;;;;;;21.38;17.35;;;;;;;;;;5096638;28;20031;-45
2023/09/10 02:28:29;;;;;;;19.90;17.95;;;;;;;;;;5096558;28;20059;-46
2023/09/10 02:31:14;;;;;;;20.27;18.27;;;;;;;;;;5096520;28;20015;-45
2023/09/10 02:33:40;;;;;;;20.10;18.02;;;;;;;;;;5125068;27;20031;-47
2023/09/10 02:36:06;;;;;;;19.73;17.65;;;;;;;;;;5096483;28;20028;-46
2023/09/10 02:38:33;;;;;;;18.77;16.98;;;;;;;;;;5097120;28;20068;-48
2023/09/10 02:40:59;;;;;;;20.15;18.15;;;;;;;;;;5096647;28;20424;-46
2023/09/10 02:43:25;;;;;;;19.77;18.00;;;;;;;;;;5098888;28;20188;-50
2023/09/10 02:45:51;;;;;;;19.48;17.38;;;;;;;;;;5115994;28;20056;-52
2023/09/10 02:48:17;;;;;;;19.15;17.15;;;;;;;;;;5098198;28;20147;-50
2023/09/10 02:50:43;;;;;;;19.35;17.45;;;;;;;;;;5097469;28;20389;-51
2023/09/10 02:53:09;;;;;;;19.75;17.65;;;;;;;;;;5117856;27;20024;-45
2023/09/10 02:55:35;;;;;;;26.58;18.35;;;;;;;;;;5109479;28;20028;-45
2023/09/10 02:58:01;;;;;;;21.30;19.13;;;;;;;;;;5078118;28;20028;-48
2023/09/10 03:00:27;;;;;;;19.00;17.20;;;;;;;;;;5096223;28;20027;-52
2023/09/10 03:02:57;;;;;;;20.70;18.30;;;;;;;;;;5097190;28;20118;-52
2023/09/10 03:05:23;;;;;;;20.65;18.65;;;;;;;;;;5096127;28;20497;-49
2023/09/10 03:07:52;;;;;;;19.98;18.02;;;;;;;;;;5096035;28;20142;-46
2023/09/10 03:10:19;;;;;;;19.30;17.40;;;;;;;;;;5101007;28;20020;-47
2023/09/10 03:12:45;;;;;;;22.35;18.40;;;;;;;;;;5085601;28;20031;-51
2023/09/10 03:15:11;;;;;;;19.60;17.60;;;;;;;;;;5090833;28;20070;-53
2023/09/10 03:17:37;;;;;;;20.58;18.60;;;;;;;;;;5087772;28;20027;-47
2023/09/10 03:20:04;;;;;;;20.30;18.20;;;;;;;;;;5109904;27;20068;-46
2023/09/10 03:22:30;;;;;;;19.35;17.45;;;;;;;;;;5089811;28;20031;-50
2023/09/10 03:24:57;;;;;;;19.30;17.33;;;;;;;;;;5095594;28;20024;-50
2023/09/10 03:27:23;;;;;;;18.20;16.40;;;;;;;;;;5113377;28;20019;-53
2023/09/10 03:29:49;;;;;;;19.65;17.52;;;;;;;;;;5103676;28;20136;-46
2023/09/10 03:32:15;;;;;;;19.70;16.90;;;;;;;;;;5095658;28;20370;-47
2023/09/10 03:34:42;;;;;;;18.55;16.67;;;;;;;;;;5095310;28;20482;-50
2023/09/10 03:37:08;;;;;;;20.70;17.13;;;;;;;;;;5095300;28;20032;-45
2023/09/10 03:39:34;;;;;;;18.80;17.00;;;;;;;;;;5095312;28;20028;-48
2023/09/10 03:42:00;;;;;;;20.02;18.00;;;;;;;;;;5095367;28;20030;-47
2023/09/10 03:44:26;;;;;;;19.25;17.15;;;;;;;;;;5095048;28;20024;-48
2023/09/10 03:46:53;;;;;;;19.42;16.95;;;;;;;;;;5095433;28;20369;-47
2023/09/10 03:49:19;;;;;;;18.50;16.48;;;;;;;;;;5094956;28;20127;-47
2023/09/10 03:51:46;;;;;;;22.00;17.42;;;;;;;;;;5095083;28;20020;-46
2023/09/10 03:54:12;;;;;;;18.10;16.30;;;;;;;;;;5109189;28;20085;-47
2023/09/10 03:56:39;;;;;;;18.92;16.90;;;;;;;;;;5094982;28;20024;-49
2023/09/10 03:59:06;;;;;;;17.98;16.17;;;;;;;;;;5094896;28;20039;-51
2023/09/10 04:01:32;;;;;;;18.13;16.35;;;;;;;;;;5094743;28;20383;-49
2023/09/10 04:03:59;;;;;;;21.10;16.05;;;;;;;;;;5094849;28;20053;-45
2023/09/10 04:06:25;;;;;;;18.67;16.77;;;;;;;;;;5094506;28;20016;-46
2023/09/10 04:08:51;;;;;;;19.65;16.42;;;;;;;;;;5094775;28;20111;-46
2023/09/10 04:11:17;;;;;;;19.00;16.95;;;;;;;;;;5094543;28;20534;-50
2023/09/10 04:13:43;;;;;;;19.42;17.15;;;;;;;;;;5088145;28;20032;-46
2023/09/10 04:16:18;;;;;;;18.45;16.48;;;;;;;;;;5094470;28;20020;-48
2023/09/10 04:18:44;;;;;;;19.88;16.40;;;;;;;;;;5094671;28;20020;-51
2023/09/10 04:21:10;;;;;;;18.58;16.50;;;;;;;;;;5094430;28;20027;-49
2023/09/10 04:23:36;;;;;;;19.00;17.08;;;;;;;;;;5082254;28;20099;-50
2023/09/10 04:26:02;;;;;;;18.42;16.42;;;;;;;;;;5102685;28;20482;-51
2023/09/10 04:28:28;;;;;;;18.70;16.73;;;;;;;;;;5098292;28;20027;-53
2023/09/10 04:30:54;;;;;;;19.02;16.75;;;;;;;;;;5104975;28;20028;-53
2023/09/10 04:33:20;;;;;;;20.42;18.35;;;;;;;;;;5093987;28;20048;-52
2023/09/10 04:35:50;;;;;;;19.25;16.58;;;;;;;;;;5094356;28;20141;-49
2023/09/10 04:38:16;;;;;;;19.23;17.30;;;;;;;;;;5094133;28;20028;-52
2023/09/10 04:40:42;;;;;;;19.58;17.58;;;;;;;;;;5094329;28;20025;-51
2023/09/10 04:43:08;;;;;;;20.13;18.05;;;;;;;;;;5093988;28;20028;-52
2023/09/10 04:45:34;;;;;;;19.42;17.38;;;;;;;;;;5093897;28;20485;-52
2023/09/10 04:48:02;;;;;;;18.85;16.55;;;;;;;;;;5093822;28;20066;-50
2023/09/10 04:50:28;;;;;;;19.95;17.25;;;;;;;;;;5078655;28;20030;-50
2023/09/10 04:52:54;;;;;;;18.67;16.77;;;;;;;;;;5099286;28;20035;-51
2023/09/10 04:55:20;;;;;;;22.25;18.60;;;;;;;;;;5102934;28;20055;-50
2023/09/10 04:57:48;;;;;;;19.40;16.98;;;;;;;;;;5108074;28;20048;-50
2023/09/10 05:00:14;;;;;;;20.85;18.77;;;;;;;;;;5093736;28;20019;-48
2023/09/10 05:02:40;;;;;;;19.00;17.20;;;;;;;;;;5093889;28;20413;-49
2023/09/10 05:05:06;;;;;;;20.73;18.52;;;;;;;;;;5093957;28;20097;-49
2023/09/10 05:07:32;;;;;;;20.80;18.65;;;;;;;;;;5094039;28;20028;-52
2023/09/10 05:09:58;;;;;;;20.63;18.60;;;;;;;;;;5081580;28;20380;-47
2023/09/10 05:12:24;;;;;;;20.08;18.08;;;;;;;;;;5102112;28;20028;-46
2023/09/10 05:14:50;;;;;;;20.35;18.05;;;;;;;;;;5093523;28;20012;-49
2023/09/10 05:17:16;;;;;;;19.70;17.80;;;;;;;;;;5093519;28;20386;-47
2023/09/10 05:19:43;;;;;;;20.15;18.05;;;;;;;;;;5093306;28;20031;-51
2023/09/10 05:22:09;;;;;;;20.42;18.42;;;;;;;;;;5106218;27;20026;-45
2023/09/10 05:24:35;;;;;;;20.00;18.10;;;;;;;;;;5124224;27;20016;-45
2023/09/10 05:27:02;;;;;;;20.13;17.70;;;;;;;;;;5113364;27;20035;-45
2023/09/10 05:29:28;;;;;;;19.33;17.50;;;;;;;;;;5115747;27;20473;-51
2023/09/10 05:31:54;;;;;;;22.05;19.85;;;;;;;;;;5116950;27;20038;-50
2023/09/10 05:34:20;;;;;;;21.08;18.33;;;;;;;;;;5113394;28;20035;-53
2023/09/10 05:36:48;;;;;;;19.58;17.70;;;;;;;;;;5097560;28;20056;-52
2023/09/10 05:39:14;;;;;;;21.92;18.05;;;;;;;;;;5092870;28;20039;-51
2023/09/10 05:41:40;;;;;;;19.88;17.98;;;;;;;;;;5107130;28;20073;-50
2023/09/10 05:44:06;;;;;;;19.20;17.30;;;;;;;;;;5104208;27;20020;-49
2023/09/10 05:46:33;;;;;;;21.67;17.50;;;;;;;;;;5110268;27;20028;-52
2023/09/10 05:48:59;;;;;;;20.67;17.85;;;;;;;;;;5080661;28;20043;-51
2023/09/10 05:51:25;;;;;;;20.45;18.27;;;;;;;;;;5103281;28;20123;-45
2023/09/10 05:53:51;;;;;;;20.25;18.17;;;;;;;;;;5107361;28;20085;-50
2023/09/10 05:56:17;;;;;;;20.08;17.95;;;;;;;;;;5092954;28;20024;-50
2023/09/10 05:58:43;;;;;;;20.58;18.42;;;;;;;;;;5093247;28;20424;-53
2023/09/10 06:01:09;;;;;;;20.63;18.50;;;;;;;;;;5092787;28;20024;-47
2023/09/10 06:03:35;;;;;;;20.15;18.20;;;;;;;;;;5092987;28;20024;-49
2023/09/10 06:06:01;;;;;;;21.77;19.48;;;;;;;;;;5092683;28;20095;-49
2023/09/10 06:08:29;;;;;;;21.52;19.27;;;;;;;;;;5099824;28;20042;-51
2023/09/10 06:10:56;;;;;;;21.17;19.00;;;;;;;;;;5092729;28;20024;-48
2023/09/10 06:13:22;;;;;;;21.13;18.77;;;;;;;;;;5092654;28;20068;-50
2023/09/10 06:15:48;;;;;;;21.30;19.02;;;;;;;;;;5092482;28;20020;-49
2023/09/10 06:18:14;;;;;;;22.13;19.70;;;;;;;;;;5092794;28;20354;-46
2023/09/10 06:20:40;;;;;;;23.05;20.52;;;;;;;;;;5082676;28;20037;-45
2023/09/10 06:23:06;;;;;;;21.08;18.42;;;;;;;;;;5088583;28;20020;-47
2023/09/10 06:25:33;;;;;;;21.08;18.90;;;;;;;;;;5092599;28;20462;-48
2023/09/10 06:27:59;;;;;;;21.60;19.50;;;;;;;;;;5092664;28;20545;-45
2023/09/10 06:30:25;;;;;;;21.98;19.17;;;;;;;;;;5092459;28;20115;-47
2023/09/10 06:32:51;;;;;;;21.17;19.08;;;;;;;;;;5092719;28;20123;-49
2023/09/10 06:35:17;;;;;;;24.33;21.00;;;;;;;;;;5092621;28;20043;-55
2023/09/10 06:37:43;;;;;;;25.42;21.35;;;;;;;;;;5099300;28;20059;-50
2023/09/10 06:40:09;;;;;;;22.08;19.98;;;;;;;;;;5115843;28;20465;-48
2023/09/10 06:42:35;;;;;;;37.30;31.23;;;;;;;;;;5120855;28;20016;-51
2023/09/10 06:45:01;;;;;;;39.20;29.20;;;;;;;;;;5117048;28;20027;-51
2023/09/10 06:47:27;;;;;;;39.05;30.10;;;;;;;;;;5129685;28;20392;-52
2023/09/10 06:49:54;;;;;;;41.10;35.40;;;;;;;;;;5110999;28;20053;-51
2023/09/10 06:52:20;;;;;;;43.63;34.85;;;;;;;;;;5102925;28;20485;-52
2023/09/10 06:54:46;;;;;;;56.22;45.50;;;;;;;;;;5109125;28;20038;-51
2023/09/10 06:57:13;;;;;;;60.00;45.30;;;;;;;;;;5096929;28;20485;-52
2023/09/10 06:59:39;;;;;;;66.22;47.65;;;;;;;;;;5096112;28;20031;-51
2023/09/10 07:02:05;;;;;;;61.55;48.13;;;;;;;;;;5099010;28;20072;-53
2023/09/10 07:04:31;;;;;;;65.25;50.90;;;;;;;;;;5107580;28;20116;-52
2023/09/10 07:06:57;;;;;;;63.88;47.85;;;;;;;;;;5095896;28;20074;-49
2023/09/10 07:22:08;;;;;;;51.75;42.03;;;;;;;;;;5060637;28;20461;-56
2023/09/10 07:24:34;;;;;;;45.88;39.58;;;;;;;;;;5038090;28;20195;-57
2023/09/10 07:27:01;;;;;;;53.35;41.58;;;;;;;;;;5047270;28;20029;-55
2023/09/10 07:29:27;;;;;;;48.85;40.95;;;;;;;;;;5047078;28;20009;-56
2023/09/10 07:31:54;;;;;;;47.95;41.35;;;;;;;;;;5046923;28;20060;-56
2023/09/10 07:34:20;;;;;;;48.67;39.20;;;;;;;;;;5047195;28;20013;-57
2023/09/10 07:36:47;;;;;;;47.85;37.10;;;;;;;;;;5046874;28;20518;-56
2023/09/10 07:39:13;;;;;;;45.47;36.97;;;;;;;;;;5047953;28;20033;-56
2023/09/10 07:41:39;;;;;;;43.40;37.03;;;;;;;;;;5048338;28;20108;-57
2023/09/10 07:44:05;;;;;;;40.50;35.10;;;;;;;;;;5048068;28;20023;-55
2023/09/10 07:46:32;;;;;;;44.55;36.03;;;;;;;;;;5048394;28;20028;-57
2023/09/10 07:48:58;;;;;;;39.85;32.83;;;;;;;;;;5030372;28;20026;-57
2023/09/10 07:51:24;;;;;;;37.38;32.75;;;;;;;;;;5048314;28;20040;-57
2023/09/10 07:53:50;;;;;;;39.13;33.40;;;;;;;;;;5048208;28;20032;-57
2023/09/10 07:56:16;;;;;;;39.10;33.78;;;;;;;;;;5048857;28;20146;-57
2023/09/10 07:58:42;;;;;;;38.95;33.03;;;;;;;;;;5048225;28;20164;-57
2023/09/10 08:01:08;;;;;;;37.13;32.83;;;;;;;;;;5048342;28;20028;-57
2023/09/10 08:03:36;;;;;;;41.92;36.40;;;;;;;;;;5048222;28;20025;-56
2023/09/10 08:06:03;;;;;;;38.90;34.70;;;;;;;;;;5047986;28;20136;-57
2023/09/10 08:08:29;;;;;;;38.03;33.10;;;;;;;;;;5048109;28;20029;-56
2023/09/10 08:10:55;;;;;;;40.35;35.95;;;;;;;;;;5047978;28;20041;-56
2023/09/10 08:13:21;;;;;;;40.40;35.17;;;;;;;;;;5047921;28;20025;-56
2023/09/10 08:15:48;;;;;;;41.35;35.28;;;;;;;;;;5047929;28;20505;-57
2023/09/10 08:18:14;;;;;;;42.72;35.13;;;;;;;;;;5047770;28;20037;-56
2023/09/10 08:20:42;;;;;;;38.40;33.92;;;;;;;;;;5047583;28;20384;-57
2023/09/10 08:23:08;;;;;;;40.40;36.08;;;;;;;;;;5034055;28;20500;-57
2023/09/10 08:25:34;;;;;;;38.60;34.50;;;;;;;;;;5034489;28;20081;-57
2023/09/10 08:28:00;;;;;;;42.65;36.70;;;;;;;;;;5034271;28;20025;-58
2023/09/10 08:30:27;;;;;;;39.58;34.75;;;;;;;;;;5034405;28;20122;-58
2023/09/10 08:32:53;;;;;;;36.47;32.78;;;;;;;;;;5025400;28;20022;-57
2023/09/10 08:35:19;;;;;;;36.83;32.85;;;;;;;;;;5033326;28;20108;-57
2023/09/10 08:37:45;;;;;;;40.83;35.85;;;;;;;;;;5034266;28;20029;-58
2023/09/10 08:40:12;;;;;;;37.05;33.25;;;;;;;;;;5034211;28;20026;-57
2023/09/10 08:42:57;;;;;;;39.80;34.88;;;;;;;;;;5031278;28;20056;-53
2023/09/10 08:45:23;;;;;;;37.63;32.50;;;;;;;;;;5034024;28;20025;-57
2023/09/10 08:47:51;;;;;;;35.65;31.88;;;;;;;;;;5034045;28;20108;-57
2023/09/10 08:50:17;;;;;;;39.38;33.78;;;;;;;;;;5034084;28;20384;-55
2023/09/10 08:52:44;;;;;;;38.65;34.45;;;;;;;;;;5033910;28;20470;-55
2023/09/10 08:55:11;;;;;;;40.08;30.52;;;;;;;;;;5033816;28;20494;-56
2023/09/10 08:57:38;;;;;;;35.58;31.63;;;;;;;;;;5033917;28;20018;-56
2023/09/10 09:00:10;;;;;;;35.70;31.35;;;;;;;;;;5033884;28;20481;-56
2023/09/10 09:02:36;;;;;;;34.83;31.15;;;;;;;;;;5033749;28;20018;-55
2023/09/10 09:05:02;;;;;;;36.72;32.58;;;;;;;;;;5015737;28;20026;-56
2023/09/10 09:07:31;;;;;;;31.35;28.20;;;;;;;;;;5033669;28;20041;-56
2023/09/10 09:10:00;;;;;;;34.35;30.90;;;;;;;;;;5033615;28;20029;-56
2023/09/10 09:12:26;;;;;;;30.15;27.00;;;;;;;;;;5033494;28;20033;-56
2023/09/10 09:14:53;;;;;;;30.75;27.45;;;;;;;;;;5033162;28;20072;-56
2023/09/10 09:17:20;;;;;;;34.45;26.85;;;;;;;;;;5033519;28;20037;-57
2023/09/10 09:19:47;;;;;;;28.50;24.95;;;;;;;;;;5032492;28;20049;-57
2023/09/10 09:22:17;;;;;;;30.88;25.05;;;;;;;;;;5032305;28;20125;-56
2023/09/10 09:24:44;;;;;;;30.65;27.65;;;;;;;;;;5032991;28;20033;-56
2023/09/10 09:27:10;;;;;;;32.83;29.45;;;;;;;;;;5033411;28;20462;-56
2023/09/10 09:29:37;;;;;;;28.48;25.65;;;;;;;;;;5015570;28;20393;-57
2023/09/10 09:32:03;;;;;;;29.98;27.08;;;;;;;;;;5033291;28;20087;-57
2023/09/10 09:34:29;;;;;;;31.10;27.58;;;;;;;;;;5014565;28;20030;-56
2023/09/10 09:36:55;;;;;;;27.35;24.80;;;;;;;;;;5032004;28;20458;-55
2023/09/10 09:39:21;;;;;;;28.45;25.42;;;;;;;;;;5032171;28;20048;-57
2023/09/10 09:41:51;;;;;;;29.48;26.30;;;;;;;;;;5029406;28;20025;-56
2023/09/10 09:44:18;;;;;;;27.13;24.42;;;;;;;;;;5029130;28;20018;-56
2023/09/10 09:46:45;;;;;;;26.20;23.33;;;;;;;;;;5031271;28;20025;-57
2023/09/10 09:49:11;;;;;;;28.45;25.58;;;;;;;;;;5032257;28;20040;-57
2023/09/10 09:51:39;;;;;;;29.30;25.23;;;;;;;;;;5032577;28;20033;-56
2023/09/10 09:54:07;;;;;;;26.92;23.65;;;;;;;;;;5029165;28;20030;-57
2023/09/10 09:56:33;;;;;;;25.80;22.73;;;;;;;;;;5029192;28;20152;-57
2023/09/10 09:58:59;;;;;;;24.15;21.15;;;;;;;;;;5028965;28;20029;-57
2023/09/10 10:01:25;;;;;;;22.90;20.13;;;;;;;;;;5028362;28;20105;-56
2023/09/10 10:03:52;;;;;;;25.30;22.63;;;;;;;;;;5029675;28;20025;-56
2023/09/10 10:06:19;;;;;;;25.40;22.83;;;;;;;;;;5028133;28;20490;-56
2023/09/10 10:08:51;;;;;;;21.23;18.95;;;;;;;;;;5011510;28;20092;-55
2023/09/10 10:11:28;;;;;;;27.63;24.42;;;;;;;;;;5027800;28;20501;-56
2023/09/10 10:13:54;;;;;;;24.65;21.40;;;;;;;;;;5028865;28;20104;-55
2023/09/10 10:16:21;;;;;;;28.33;25.08;;;;;;;;;;5028233;28;20044;-54
2023/09/10 10:18:47;;;;;;;25.20;22.63;;;;;;;;;;5029609;28;20128;-55
2023/09/10 10:21:13;;;;;;;25.95;21.77;;;;;;;;;;5027520;28;20046;-55
2023/09/10 10:23:39;;;;;;;27.95;23.65;;;;;;;;;;5011803;28;20374;-56
2023/09/10 10:26:06;;;;;;;21.73;19.55;;;;;;;;;;5028494;28;20029;-57
2023/09/10 10:28:34;;;;;;;22.92;18.85;;;;;;;;;;5027903;28;20052;-57
2023/09/10 10:31:04;;;;;;;23.42;21.23;;;;;;;;;;5028858;28;20116;-55
2023/09/10 10:33:31;;;;;;;21.05;18.92;;;;;;;;;;5028345;28;20030;-57
2023/09/10 10:36:04;;;;;;;24.17;21.05;;;;;;;;;;5027269;28;20025;-57
2023/09/10 10:38:33;;;;;;;23.42;21.13;;;;;;;;;;5029286;28;20030;-57
2023/09/10 10:41:01;;;;;;;22.58;20.35;;;;;;;;;;5027447;28;20083;-58
2023/09/10 10:43:29;;;;;;;20.33;17.90;;;;;;;;;;5027444;28;20108;-56
2023/09/10 10:45:57;;;;;;;23.63;21.35;;;;;;;;;;5029081;28;20497;-57
2023/09/10 10:48:30;;;;;;;22.13;19.92;;;;;;;;;;5027649;28;20029;-57
2023/09/10 10:50:57;;;;;;;20.88;18.73;;;;;;;;;;5025048;28;20045;-57
2023/09/10 10:53:24;;;;;;;23.33;21.05;;;;;;;;;;5029035;28;20513;-57
2023/09/10 10:55:55;;;;;;;21.13;19.13;;;;;;;;;;5027686;28;20033;-58
2023/09/10 10:58:23;;;;;;;25.10;21.10;;;;;;;;;;5027773;28;20021;-56
2023/09/10 11:00:50;;;;;;;22.80;20.42;;;;;;;;;;5028925;28;20037;-57
2023/09/10 11:03:17;;;;;;;24.75;22.13;;;;;;;;;;5027749;28;20358;-57
2023/09/10 11:06:04;;;;;;;23.15;21.08;;;;;;;;;;5024834;28;20120;-58
2023/09/10 11:08:31;;;;;;;23.63;21.15;;;;;;;;;;5026986;28;20028;-56
2023/09/10 11:10:57;;;;;;;21.95;19.80;;;;;;;;;;5028014;28;20052;-57
2023/09/10 11:13:23;;;;;;;26.63;24.02;;;;;;;;;;5027527;28;20029;-57
2023/09/10 11:16:04;;;;;;;22.98;20.73;;;;;;;;;;5028764;28;20120;-56
2023/09/10 11:18:36;;;;;;;24.83;22.23;;;;;;;;;;5025389;28;20025;-57
2023/09/10 11:21:02;;;;;;;23.60;21.13;;;;;;;;;;5026538;28;20045;-58
2023/09/10 11:23:29;;;;;;;23.35;21.20;;;;;;;;;;5027566;28;20034;-56
2023/09/10 11:26:27;;;;;;;24.73;22.42;;;;;;;;;;5028176;28;20053;-57
2023/09/10 11:28:54;;;;;;;22.45;20.15;;;;;;;;;;4993937;28;20037;-57
2023/09/10 11:31:38;;;;;;;23.88;21.45;;;;;;;;;;5027283;28;20120;-58
2023/09/10 11:34:16;;;;;;;20.05;18.13;;;;;;;;;;5027334;28;20022;-57
2023/09/10 11:36:44;;;;;;;23.65;21.35;;;;;;;;;;5027566;28;20449;-57
2023/09/10 11:39:10;;;;;;;20.00;17.92;;;;;;;;;;5029486;28;20139;-58
2023/09/10 11:41:36;;;;;;;21.15;19.25;;;;;;;;;;5031231;28;20018;-57
2023/09/10 11:44:02;;;;;;;21.40;19.35;;;;;;;;;;5030979;28;20025;-58
2023/09/10 11:46:28;;;;;;;23.10;20.90;;;;;;;;;;5013479;28;20387;-57
2023/09/10 11:48:54;;;;;;;20.38;18.27;;;;;;;;;;5031149;28;20040;-58
2023/09/10 11:51:20;;;;;;;18.27;16.63;;;;;;;;;;5031016;28;20045;-57
2023/09/10 11:53:46;;;;;;;19.13;17.27;;;;;;;;;;5031189;28;20025;-57
2023/09/10 11:56:12;;;;;;;20.73;18.90;;;;;;;;;;5031228;28;20029;-58
2023/09/10 11:58:38;;;;;;;21.38;17.63;;;;;;;;;;5034922;28;20060;-56
2023/09/10 12:01:05;;;;;;;21.20;19.20;;;;;;;;;;5034989;28;20445;-56
2023/09/10 12:03:31;;;;;;;21.10;19.15;;;;;;;;;;5035052;28;20049;-57
2023/09/10 12:06:00;;;;;;;21.27;18.25;;;;;;;;;;5016826;28;20091;-57
2023/09/10 12:08:26;;;;;;;23.27;20.90;;;;;;;;;;5034913;28;20029;-58
2023/09/10 12:10:54;;;;;;;22.55;20.35;;;;;;;;;;5034546;28;20088;-58
2023/09/10 12:13:20;;;;;;;20.83;18.75;;;;;;;;;;5034480;28;20025;-56
2023/09/10 12:15:47;;;;;;;22.50;20.13;;;;;;;;;;5016642;28;20366;-57
2023/09/10 12:18:13;;;;;;;19.65;17.75;;;;;;;;;;5016719;28;20471;-56
2023/09/10 12:20:39;;;;;;;17.75;16.25;;;;;;;;;;5034300;28;20114;-57
2023/09/10 12:23:05;;;;;;;19.67;17.98;;;;;;;;;;5016525;28;20386;-57
2023/09/10 12:25:31;;;;;;;19.48;17.60;;;;;;;;;;5034485;28;20025;-58
2023/09/10 12:27:58;;;;;;;21.60;19.60;;;;;;;;;;5034260;28;20014;-58
2023/09/10 12:30:24;;;;;;;20.30;18.67;;;;;;;;;;5034414;28;20079;-58
2023/09/10 12:32:50;;;;;;;22.10;20.00;;;;;;;;;;5034200;28;20032;-57
2023/09/10 12:35:16;;;;;;;17.17;15.75;;;;;;;;;;5034243;28;20048;-58
2023/09/10 12:37:47;;;;;;;19.02;17.60;;;;;;;;;;5034269;28;20079;-58
2023/09/10 12:40:12;;;;;;;19.83;18.05;;;;;;;;;;5034370;28;20339;-58
2023/09/10 12:42:38;;;;;;;18.13;16.40;;;;;;;;;;5034050;28;20029;-58
2023/09/10 12:45:05;;;;;;;17.05;15.75;;;;;;;;;;5033960;28;20022;-58
2023/09/10 12:47:31;;;;;;;18.80;17.15;;;;;;;;;;5034193;28;20061;-57
2023/09/10 12:49:57;;;;;;;17.30;15.93;;;;;;;;;;5033945;28;20052;-58
2023/09/10 12:52:23;;;;;;;16.90;15.55;;;;;;;;;;5033902;28;20041;-57
2023/09/10 12:54:49;;;;;;;17.73;16.23;;;;;;;;;;5034114;28;20029;-57
2023/09/10 12:57:15;;;;;;;18.27;16.67;;;;;;;;;;5033794;28;20045;-57
2023/09/10 12:59:41;;;;;;;16.98;15.65;;;;;;;;;;5033857;28;20061;-57
2023/09/10 13:02:10;;;;;;;16.48;15.00;;;;;;;;;;5015809;28;20072;-57
2023/09/10 13:04:36;;;;;;;17.83;16.35;;;;;;;;;;5033837;28;20026;-58
2023/09/10 13:07:02;;;;;;;20.40;18.70;;;;;;;;;;5033694;28;20022;-57
2023/09/10 13:09:28;;;;;;;21.13;19.00;;;;;;;;;;5029272;28;20636;-58
2023/09/10 13:11:54;;;;;;;19.27;17.48;;;;;;;;;;5031297;28;20115;-58
2023/09/10 13:14:20;;;;;;;18.08;16.67;;;;;;;;;;5031057;28;20439;-57
2023/09/10 13:16:46;;;;;;;16.20;15.00;;;;;;;;;;5032859;28;20075;-57
2023/09/10 13:19:12;;;;;;;20.45;18.70;;;;;;;;;;5032709;28;20018;-58
2023/09/10 13:21:38;;;;;;;19.45;17.67;;;;;;;;;;5026016;28;20449;-57
2023/09/10 13:24:04;;;;;;;21.48;19.73;;;;;;;;;;5033278;28;20021;-57
2023/09/10 13:26:30;;;;;;;19.48;17.98;;;;;;;;;;5033279;28;20049;-57
2023/09/10 13:28:56;;;;;;;19.13;17.67;;;;;;;;;;5033330;28;20107;-58
2023/09/10 13:31:22;;;;;;;18.40;16.80;;;;;;;;;;5033012;28;20072;-58
2023/09/10 13:33:48;;;;;;;18.90;17.42;;;;;;;;;;5033463;28;20134;-57
2023/09/10 13:36:14;;;;;;;19.60;18.08;;;;;;;;;;5033112;28;20105;-58
2023/09/10 13:38:40;;;;;;;19.50;17.67;;;;;;;;;;5033021;28;20049;-58
2023/09/10 13:41:06;;;;;;;18.88;17.25;;;;;;;;;;5031189;28;20429;-57
2023/09/10 13:43:32;;;;;;;19.08;17.60;;;;;;;;;;5032860;28;20025;-57
2023/09/10 13:45:58;;;;;;;16.35;15.25;;;;;;;;;;5032868;28;20025;-57
2023/09/10 13:48:24;;;;;;;19.55;17.83;;;;;;;;;;5032828;28;20029;-57
2023/09/10 13:50:51;;;;;;;18.35;16.83;;;;;;;;;;5032724;28;20071;-59
2023/09/10 13:53:17;;;;;;;17.40;16.00;;;;;;;;;;5002474;28;20495;-59
2023/09/10 13:55:43;;;;;;;19.42;17.95;;;;;;;;;;5031927;28;20057;-59
2023/09/10 13:58:09;;;;;;;19.08;17.50;;;;;;;;;;5014966;28;20076;-59
2023/09/10 14:00:35;;;;;;;18.98;17.48;;;;;;;;;;5032596;28;20033;-59
2023/09/10 14:03:02;;;;;;;19.10;17.60;;;;;;;;;;5032723;28;20431;-59
2023/09/10 14:05:28;;;;;;;18.52;17.02;;;;;;;;;;5032972;28;20029;-59
2023/09/10 14:07:54;;;;;;;16.88;15.55;;;;;;;;;;5032651;28;20379;-59
2023/09/10 14:10:20;;;;;;;17.20;15.63;;;;;;;;;;5032468;28;20099;-59
2023/09/10 14:12:46;;;;;;;16.13;14.95;;;;;;;;;;5014469;28;20472;-59
2023/09/10 14:15:12;;;;;;;17.02;15.70;;;;;;;;;;5032387;28;20021;-59
2023/09/10 14:17:39;;;;;;;17.38;15.80;;;;;;;;;;5032290;28;20029;-59
2023/09/10 14:20:05;;;;;;;17.90;16.50;;;;;;;;;;5031577;28;20029;-59
2023/09/10 14:22:31;;;;;;;17.05;15.57;;;;;;;;;;5032251;28;20128;-59
2023/09/10 14:24:57;;;;;;;16.45;14.88;;;;;;;;;;5032247;28;20114;-59
2023/09/10 14:27:23;;;;;;;17.27;15.73;;;;;;;;;;5032162;28;20391;-58
2023/09/10 14:29:49;;;;;;;17.33;16.00;;;;;;;;;;5032049;28;20092;-59
2023/09/10 14:32:17;;;;;;;15.27;14.00;;;;;;;;;;5031946;28;20104;-59
2023/09/10 14:34:43;;;;;;;15.40;14.07;;;;;;;;;;5032260;28;20075;-59
2023/09/10 14:37:09;;;;;;;15.07;13.77;;;;;;;;;;5032135;28;20037;-58
2023/09/10 14:39:37;;;;;;;16.92;15.52;;;;;;;;;;5032011;28;20025;-59
2023/09/10 14:42:03;;;;;;;15.52;14.30;;;;;;;;;;5032172;28;20048;-59